createdAt,value
2022-12-14T00:00:41.606Z,4.02
2022-12-14T00:02:43.819Z,4.07
2022-12-14T00:04:45.934Z,4.01
2022-12-14T00:06:47.918Z,4.02
2022-12-14T00:08:52.764Z,4.03
2022-12-14T00:10:55.105Z,4.05
2022-12-14T00:12:57.905Z,4.01
2022-12-14T00:15:00.146Z,4.04
2022-12-14T00:17:02.143Z,4.02
2022-12-14T00:19:05.828Z,4.01
2022-12-14T00:21:11.322Z,4.03
2022-12-14T00:23:13.605Z,4.04
2022-12-14T00:25:15.770Z,4.04
2022-12-14T00:27:17.714Z,4.04
2022-12-14T00:29:19.796Z,4.04
2022-12-14T00:31:23.600Z,4.01
2022-12-14T00:33:25.535Z,4.02
2022-12-14T00:35:27.537Z,4.02
2022-12-14T00:37:29.605Z,4.05
2022-12-14T00:39:31.578Z,4.03
2022-12-14T00:41:33.568Z,4.04
2022-12-14T00:43:35.965Z,4.04
2022-12-14T00:45:38.078Z,4.00
2022-12-14T00:47:40.930Z,4.00
2022-12-14T00:49:43.005Z,4.02
2022-12-14T00:51:45.109Z,4.02
2022-12-14T00:53:47.144Z,3.96
2022-12-14T00:55:49.782Z,3.98
2022-12-14T00:57:51.985Z,4.00
2022-12-14T00:59:54.004Z,4.04
2022-12-14T01:01:56.234Z,4.01
2022-12-14T01:04:08.785Z,4.01
2022-12-14T01:06:16.505Z,4.00
2022-12-14T01:08:18.518Z,4.02
2022-12-14T01:10:20.658Z,4.03
2022-12-14T01:12:22.596Z,3.99
2022-12-14T01:14:24.585Z,4.00
2022-12-14T01:16:26.698Z,3.97
2022-12-14T01:18:28.687Z,3.93
2022-12-14T01:20:30.977Z,3.93
2022-12-14T01:22:33.065Z,3.96
2022-12-14T01:24:35.065Z,3.92
2022-12-14T01:26:39.359Z,3.87
2022-12-14T01:28:41.825Z,3.93
2022-12-14T01:30:43.866Z,3.94
2022-12-14T01:32:46.360Z,3.91
2022-12-14T01:34:49.298Z,3.89
2022-12-14T01:36:51.238Z,3.84
2022-12-14T01:38:58.425Z,3.88
2022-12-14T01:41:00.955Z,3.91
2022-12-14T01:43:02.983Z,3.94
2022-12-14T01:45:06.825Z,3.93
2022-12-14T01:47:18.965Z,3.95
2022-12-14T01:49:30.578Z,3.95
2022-12-14T01:51:34.958Z,3.96
2022-12-14T01:53:37.038Z,3.92
2022-12-14T01:55:45.192Z,3.95
2022-12-14T01:58:04.021Z,3.95
2022-12-14T02:00:10.799Z,4.00
2022-12-14T02:02:15.101Z,4.02
2022-12-14T02:04:19.198Z,3.99
2022-12-14T02:06:27.165Z,4.03
2022-12-14T02:08:29.805Z,4.08
2022-12-14T02:10:32.718Z,4.10
2022-12-14T02:12:41.737Z,4.11
2022-12-14T02:14:44.586Z,4.16
2022-12-14T02:16:47.365Z,4.07
2022-12-14T02:18:49.342Z,4.09
2022-12-14T02:21:03.918Z,4.14
2022-12-14T02:23:17.878Z,4.13
2022-12-14T02:25:26.297Z,4.10
2022-12-14T02:27:50.636Z,4.09
2022-12-14T02:30:04.571Z,4.12
2022-12-14T02:32:21.818Z,4.10
2022-12-14T02:34:38.717Z,4.05
2022-12-14T02:37:00.525Z,4.07
2022-12-14T02:39:23.228Z,4.02
2022-12-14T02:41:27.721Z,3.95
2022-12-14T02:43:48.457Z,3.99
2022-12-14T02:45:50.786Z,4.03
2022-12-14T02:50:08.889Z,4.03
2022-12-14T02:52:29.387Z,4.01
2022-12-14T02:54:49.285Z,4.01
2022-12-14T02:56:57.388Z,3.98
2022-12-14T02:59:00.561Z,4.00
2022-12-14T03:01:19.974Z,4.03
2022-12-14T03:03:22.175Z,4.00
2022-12-14T03:05:23.953Z,4.02
2022-12-14T03:07:48.842Z,3.94
2022-12-14T03:09:52.645Z,4.02
2022-12-14T03:12:17.399Z,4.02
2022-12-14T03:14:30.756Z,4.01
2022-12-14T03:16:46.710Z,3.99
2022-12-14T03:19:14.006Z,3.97
2022-12-14T03:21:25.155Z,4.01
2022-12-14T03:23:33.796Z,3.96
2022-12-14T03:26:05.078Z,3.99
2022-12-14T03:28:25.864Z,4.01
2022-12-14T03:30:58.317Z,4.00
2022-12-14T03:32:58.793Z,3.99
2022-12-14T03:35:32.738Z,4.00
2022-12-14T03:37:38.303Z,4.00
2022-12-14T03:39:43.560Z,4.01
2022-12-14T03:42:10.391Z,3.97
2022-12-14T03:44:23.938Z,3.99
2022-12-14T03:46:38.543Z,3.88
2022-12-14T03:48:49.466Z,3.95
2022-12-14T03:51:27.398Z,3.96
2022-12-14T03:53:38.640Z,3.92
2022-12-14T03:56:05.068Z,3.92
2022-12-14T03:58:27.590Z,3.88
2022-12-14T04:00:32.300Z,3.90
2022-12-14T04:02:57.220Z,3.89
2022-12-14T04:05:23.593Z,3.93
2022-12-14T04:07:38.353Z,3.97
2022-12-14T04:10:03.699Z,3.94
2022-12-14T04:12:35.557Z,3.94
2022-12-14T04:15:08.970Z,3.95
2022-12-14T04:17:41.204Z,3.95
2022-12-14T04:19:50.812Z,3.76
2022-12-14T04:22:08.612Z,3.75
2022-12-14T04:24:31.811Z,3.79
2022-12-14T04:26:43.172Z,3.81
2022-12-14T04:29:11.291Z,3.79
2022-12-14T04:31:18.636Z,3.73
2022-12-14T04:33:39.346Z,3.78
2022-12-14T04:35:42.606Z,3.75
2022-12-14T04:37:50.912Z,3.63
2022-12-14T04:40:00.992Z,3.63
2022-12-14T04:42:06.361Z,3.75
2022-12-14T04:44:19.529Z,3.70
2022-12-14T04:46:26.833Z,3.73
2022-12-14T04:48:38.761Z,3.69
2022-12-14T04:50:47.921Z,3.67
2022-12-14T04:52:59.674Z,3.61
2022-12-14T04:55:06.831Z,3.61
2022-12-14T04:57:36.658Z,3.57
2022-12-14T04:59:38.394Z,3.60
2022-12-14T05:01:58.670Z,3.54
2022-12-14T05:04:32.911Z,3.48
2022-12-14T05:07:02.485Z,3.46
2022-12-14T05:09:28.767Z,3.39
2022-12-14T05:11:54.393Z,3.34
2022-12-14T05:14:00.842Z,3.38
2022-12-14T05:16:05.007Z,3.40
2022-12-14T05:18:09.116Z,3.39
2022-12-14T05:20:19.403Z,3.32
2022-12-14T05:22:22.424Z,3.34
2022-12-14T05:24:24.200Z,3.30
2022-12-14T05:26:25.872Z,3.32
2022-12-14T05:28:27.493Z,3.25
2022-12-14T05:30:29.320Z,3.27
2022-12-14T05:32:31.346Z,3.27
2022-12-14T05:34:33.147Z,3.17
2022-12-14T05:36:35.607Z,3.23
2022-12-14T05:38:37.255Z,3.24
2022-12-14T05:40:39.935Z,3.16
2022-12-14T05:42:45.425Z,3.21
2022-12-14T05:44:48.864Z,3.16
2022-12-14T05:46:50.534Z,3.15
2022-12-14T05:48:52.145Z,3.09
2022-12-14T05:50:53.833Z,3.12
2022-12-14T05:52:55.943Z,3.15
2022-12-14T05:55:02.416Z,3.11
2022-12-14T05:57:07.658Z,3.10
2022-12-14T05:59:10.777Z,3.04
2022-12-14T06:01:19.075Z,3.03
2022-12-14T06:03:21.448Z,3.02
2022-12-14T06:05:23.171Z,3.04
2022-12-14T06:07:27.932Z,2.98
2022-12-14T06:09:30.325Z,2.90
2022-12-14T06:11:32.055Z,2.96
2022-12-14T06:13:33.710Z,2.94
2022-12-14T06:15:40.554Z,2.99
2022-12-14T06:17:47.142Z,2.97
2022-12-14T06:19:50.023Z,2.98
2022-12-14T06:21:52.395Z,3.02
2022-12-14T06:23:55.077Z,2.97
2022-12-14T06:25:56.945Z,3.01
2022-12-14T06:27:58.629Z,3.03
2022-12-14T06:30:00.308Z,2.99
2022-12-14T06:32:01.986Z,3.00
2022-12-14T06:34:03.866Z,3.02
2022-12-14T06:36:05.841Z,2.90
2022-12-14T06:38:07.530Z,2.99
2022-12-14T06:40:09.912Z,2.96
2022-12-14T06:42:11.816Z,2.95
2022-12-14T06:44:14.471Z,2.93
2022-12-14T06:46:18.462Z,2.93
2022-12-14T06:48:20.264Z,2.90
2022-12-14T06:50:22.022Z,2.82
2022-12-14T06:52:26.879Z,2.83
2022-12-14T06:54:28.981Z,2.81
2022-12-14T06:56:31.319Z,2.91
2022-12-14T06:58:34.375Z,2.81
2022-12-14T07:00:36.421Z,2.88
2022-12-14T07:02:39.507Z,2.84
2022-12-14T07:04:41.930Z,2.88
2022-12-14T07:06:43.650Z,2.90
2022-12-14T07:08:45.790Z,2.93
2022-12-14T07:10:47.473Z,2.81
2022-12-14T07:12:49.111Z,2.87
2022-12-14T07:14:50.941Z,2.84
2022-12-14T07:17:00.243Z,2.76
2022-12-14T07:19:01.975Z,2.80
2022-12-14T07:21:18.387Z,2.80
2022-12-14T07:23:23.428Z,2.79
2022-12-14T07:25:29.335Z,2.76
2022-12-14T07:27:31.112Z,2.77
2022-12-14T07:29:35.017Z,2.75
2022-12-14T07:31:37.045Z,2.78
2022-12-14T07:33:38.732Z,2.78
2022-12-14T07:35:40.481Z,2.76
2022-12-14T07:37:42.312Z,2.77
2022-12-14T07:39:51.020Z,2.85
2022-12-14T07:41:54.789Z,2.90
2022-12-14T07:43:57.713Z,2.89
2022-12-14T07:46:04.539Z,2.83
2022-12-14T07:48:07.422Z,2.88
2022-12-14T07:50:09.469Z,2.77
2022-12-14T07:52:11.092Z,2.82
2022-12-14T07:54:13.235Z,2.83
2022-12-14T07:56:18.212Z,2.87
2022-12-14T07:58:19.987Z,2.88
2022-12-14T08:00:22.115Z,2.90
2022-12-14T08:02:24.427Z,2.94
2022-12-14T08:04:26.274Z,2.93
2022-12-14T08:06:29.970Z,2.88
2022-12-14T08:08:31.770Z,2.90
2022-12-14T08:10:40.064Z,2.93
2022-12-14T08:12:42.153Z,2.88
2022-12-14T08:14:45.125Z,2.86
2022-12-14T08:16:52.921Z,2.90
2022-12-14T08:18:55.974Z,2.83
2022-12-14T08:20:57.623Z,2.87
2022-12-14T08:22:59.598Z,2.75
2022-12-14T08:25:01.321Z,2.80
2022-12-14T08:27:03.125Z,2.81
2022-12-14T08:29:05.643Z,2.80
2022-12-14T08:31:21.981Z,2.83
2022-12-14T08:33:24.369Z,2.87
2022-12-14T08:35:26.134Z,2.89
2022-12-14T08:37:27.817Z,2.90
2022-12-14T08:39:29.478Z,2.90
2022-12-14T08:41:31.694Z,2.99
2022-12-14T08:43:33.837Z,2.95
2022-12-14T08:45:36.119Z,2.85
2022-12-14T08:47:37.861Z,2.98
2022-12-14T08:49:39.735Z,3.00
2022-12-14T08:51:42.087Z,3.03
2022-12-14T08:53:44.328Z,3.07
2022-12-14T08:55:46.427Z,3.09
2022-12-14T08:57:48.552Z,3.12
2022-12-14T09:00:01.453Z,3.12
2022-12-14T09:02:04.250Z,3.15
2022-12-14T09:04:07.870Z,3.22
2022-12-14T09:06:13.005Z,3.15
2022-12-14T09:08:14.707Z,3.17
2022-12-14T09:10:16.638Z,3.22
2022-12-14T09:12:20.998Z,3.16
2022-12-14T09:14:22.736Z,3.20
2022-12-14T09:16:27.973Z,3.19
2022-12-14T09:18:34.542Z,3.21
2022-12-14T09:20:36.587Z,3.24
2022-12-14T09:22:38.434Z,3.19
2022-12-14T09:24:40.133Z,3.23
2022-12-14T09:26:41.827Z,3.18
2022-12-14T09:28:47.499Z,3.25
2022-12-14T09:30:54.644Z,3.30
2022-12-14T09:32:56.392Z,3.35
2022-12-14T09:34:59.976Z,3.41
2022-12-14T09:37:04.764Z,3.41
2022-12-14T09:39:06.487Z,3.44
2022-12-14T09:41:44.438Z,3.52
2022-12-14T09:44:35.816Z,3.64
2022-12-14T09:46:40.134Z,3.56
2022-12-14T09:48:42.605Z,3.56
2022-12-14T09:50:50.050Z,3.57
2022-12-14T09:52:53.398Z,3.65
2022-12-14T09:54:57.675Z,3.59
2022-12-14T09:57:11.815Z,3.65
2022-12-14T09:59:17.796Z,3.68
2022-12-14T10:01:22.709Z,3.71
2022-12-14T10:03:46.274Z,3.77
2022-12-14T10:06:06.274Z,3.74
2022-12-14T10:08:34.770Z,3.83
2022-12-14T10:10:45.484Z,3.84
2022-12-14T10:13:02.518Z,3.86
2022-12-14T10:15:33.665Z,3.91
2022-12-14T10:17:56.897Z,3.95
2022-12-14T10:20:25.370Z,3.98
2022-12-14T10:22:35.996Z,3.97
2022-12-14T10:24:43.288Z,4.02
2022-12-14T10:26:50.681Z,4.02
2022-12-14T10:29:32.491Z,4.10
2022-12-14T10:31:45.698Z,4.06
2022-12-14T10:33:47.582Z,4.12
2022-12-14T10:35:55.037Z,4.11
2022-12-14T10:38:29.684Z,4.13
2022-12-14T10:40:35.287Z,4.13
2022-12-14T10:42:49.216Z,4.12
2022-12-14T10:45:41.581Z,4.15
2022-12-14T10:47:52.779Z,4.10
2022-12-14T10:50:13.660Z,4.13
2022-12-14T10:52:21.671Z,4.14
2022-12-14T10:54:34.302Z,4.04
2022-12-14T10:56:39.306Z,4.05
2022-12-14T10:58:41.073Z,4.15
2022-12-14T11:00:43.918Z,4.15
2022-12-14T11:02:49.997Z,4.10
2022-12-14T11:04:57.555Z,4.07
2022-12-14T11:07:10.825Z,4.04
2022-12-14T11:09:24.263Z,4.10
2022-12-14T11:11:27.281Z,4.15
2022-12-14T11:13:41.523Z,4.20
2022-12-14T11:15:51.441Z,4.19
2022-12-14T11:18:15.979Z,4.24
2022-12-14T11:20:27.907Z,4.17
2022-12-14T11:22:42.398Z,4.29
2022-12-14T11:24:47.595Z,4.30
2022-12-14T11:26:50.233Z,4.34
2022-12-14T11:28:54.720Z,4.37
2022-12-14T11:31:21.646Z,4.39
2022-12-14T11:33:26.941Z,4.31
2022-12-14T11:35:28.605Z,4.41
2022-12-14T11:37:32.508Z,4.46
2022-12-14T11:39:34.871Z,4.44
2022-12-14T11:41:39.961Z,4.46
2022-12-14T11:43:41.772Z,4.47
2022-12-14T11:45:51.358Z,4.51
2022-12-14T11:48:14.508Z,4.53
2022-12-14T11:50:24.613Z,4.54
2022-12-14T11:52:37.252Z,4.52
2022-12-14T11:54:42.514Z,4.60
2022-12-14T11:56:55.745Z,4.55
2022-12-14T11:58:57.458Z,4.56
2022-12-14T12:01:24.435Z,4.53
2022-12-14T12:03:34.770Z,4.54
2022-12-14T12:05:41.847Z,4.61
2022-12-14T12:07:49.392Z,4.57
2022-12-14T12:09:51.451Z,4.56
2022-12-14T12:11:53.259Z,4.66
2022-12-14T12:14:01.820Z,4.69
2022-12-14T12:16:21.073Z,4.69
2022-12-14T12:18:33.231Z,4.68
2022-12-14T12:20:41.669Z,4.73
2022-12-14T12:22:46.790Z,4.81
2022-12-14T12:25:24.370Z,4.82
2022-12-14T12:27:19.208Z,4.80
2022-12-14T12:29:29.803Z,4.78
2022-12-14T12:31:43.628Z,4.82
2022-12-14T12:33:54.682Z,4.83
2022-12-14T12:36:01.730Z,4.84
2022-12-14T12:38:52.077Z,4.80
2022-12-14T12:41:20.994Z,4.85
2022-12-14T12:43:34.034Z,4.87
2022-12-14T12:45:47.686Z,4.89
2022-12-14T12:48:01.845Z,4.87
2022-12-14T12:50:13.414Z,4.84
2022-12-14T12:52:34.291Z,4.85
2022-12-14T12:54:54.288Z,4.89
2022-12-14T12:56:59.201Z,4.90
2022-12-14T12:59:02.374Z,4.86
2022-12-14T13:01:31.217Z,4.92
2022-12-14T13:03:45.337Z,4.92
2022-12-14T13:05:49.064Z,4.93
2022-12-14T13:08:06.992Z,5.01
2022-12-14T13:10:27.534Z,4.99
2022-12-14T13:12:39.392Z,4.99
2022-12-14T13:14:49.737Z,5.04
2022-12-14T13:16:52.548Z,5.06
2022-12-14T13:21:36.190Z,5.09
2022-12-14T13:23:44.683Z,5.09
2022-12-14T13:26:55.661Z,5.10
2022-12-14T13:29:10.908Z,5.12
2022-12-14T13:31:27.957Z,5.12
2022-12-14T13:33:35.815Z,5.12
2022-12-14T13:35:46.174Z,5.11
2022-12-14T13:38:31.176Z,5.08
2022-12-14T13:40:50.208Z,5.04
2022-12-14T13:43:17.086Z,5.07
2022-12-14T13:45:21.181Z,5.03
2022-12-14T13:47:30.743Z,5.00
2022-12-14T13:49:33.503Z,5.00
2022-12-14T13:51:39.954Z,4.89
2022-12-14T13:53:50.476Z,4.83
2022-12-14T13:56:19.366Z,4.87
2022-12-14T13:58:48.585Z,4.67
2022-12-14T14:00:53.679Z,4.69
2022-12-14T14:02:56.062Z,4.66
2022-12-14T14:05:16.232Z,4.65
2022-12-14T14:07:23.858Z,4.55
2022-12-14T14:09:34.457Z,4.54
2022-12-14T14:11:37.393Z,4.52
2022-12-14T14:13:39.747Z,4.46
2022-12-14T14:16:27.548Z,4.43
2022-12-14T14:18:31.428Z,4.28
2022-12-14T14:20:33.405Z,4.18
2022-12-14T14:22:35.133Z,4.08
2022-12-14T14:24:54.995Z,4.01
2022-12-14T14:27:18.637Z,4.03
2022-12-14T14:29:29.022Z,3.90
2022-12-14T14:31:49.585Z,3.93
2022-12-14T14:33:55.915Z,3.89
2022-12-14T14:36:24.985Z,3.77
2022-12-14T14:38:31.282Z,3.71
2022-12-14T14:41:13.881Z,3.86
2022-12-14T14:43:06.114Z,3.67
2022-12-14T14:45:21.187Z,3.72
2022-12-14T14:47:33.599Z,3.66
2022-12-14T14:49:40.804Z,3.66
2022-12-14T14:51:42.495Z,3.57
2022-12-14T14:53:44.743Z,3.50
2022-12-14T14:55:58.387Z,3.50
2022-12-14T14:58:09.215Z,3.48
2022-12-14T15:00:11.468Z,3.36
2022-12-14T15:02:41.670Z,3.38
2022-12-14T15:04:56.872Z,3.41
2022-12-14T15:07:04.381Z,3.26
2022-12-14T15:09:24.929Z,3.26
2022-12-14T15:11:31.603Z,3.30
2022-12-14T15:13:48.287Z,3.30
2022-12-14T15:15:56.626Z,3.26
2022-12-14T15:18:34.157Z,3.20
2022-12-14T15:20:35.793Z,3.34
2022-12-14T15:22:43.796Z,3.39
2022-12-14T15:24:48.820Z,3.32
2022-12-14T15:26:50.697Z,3.38
2022-12-14T15:28:56.446Z,3.34
2022-12-14T15:31:24.229Z,3.27
2022-12-14T15:33:48.296Z,3.33
2022-12-14T15:35:51.330Z,3.40
2022-12-14T15:38:01.423Z,3.43
2022-12-14T15:40:10.803Z,3.48
2022-12-14T15:42:16.991Z,3.47
2022-12-14T15:44:22.718Z,3.35
2022-12-14T15:46:26.218Z,3.44
2022-12-14T15:48:31.124Z,3.49
2022-12-14T15:50:32.866Z,3.50
2022-12-14T15:52:35.179Z,3.46
2022-12-14T15:54:37.967Z,3.42
2022-12-14T15:56:44.055Z,3.42
2022-12-14T15:58:46.295Z,3.50
2022-12-14T16:00:52.026Z,3.54
2022-12-14T16:02:55.234Z,3.44
2022-12-14T16:05:00.569Z,3.58
2022-12-14T16:07:18.119Z,3.53
2022-12-14T16:09:30.938Z,3.60
2022-12-14T16:11:54.663Z,3.68
2022-12-14T16:14:03.554Z,3.64
2022-12-14T16:16:11.340Z,3.73
2022-12-14T16:18:17.349Z,3.63
2022-12-14T16:20:34.903Z,3.72
2022-12-14T16:22:43.386Z,3.75
2022-12-14T16:25:10.036Z,3.69
2022-12-14T16:27:19.392Z,3.76
2022-12-14T16:29:26.686Z,3.72
2022-12-14T16:31:29.043Z,3.76
2022-12-14T16:33:37.740Z,3.89
2022-12-14T16:35:39.710Z,3.91
2022-12-14T16:37:49.515Z,3.97
2022-12-14T16:39:56.508Z,3.98
2022-12-14T16:42:09.984Z,4.05
2022-12-14T16:44:37.279Z,4.07
2022-12-14T16:47:15.474Z,4.10
2022-12-14T16:49:30.984Z,4.08
2022-12-14T16:53:59.785Z,4.16
2022-12-14T16:56:16.393Z,4.18
2022-12-14T16:58:18.525Z,4.14
2022-12-14T17:00:31.681Z,4.17
2022-12-14T17:02:46.780Z,4.17
2022-12-14T17:04:48.848Z,4.16
2022-12-14T17:06:54.112Z,4.22
2022-12-14T17:08:56.045Z,4.22
2022-12-14T17:10:58.246Z,4.26
2022-12-14T17:13:06.271Z,4.26
2022-12-14T17:15:14.121Z,4.20
2022-12-14T17:17:20.185Z,4.28
2022-12-14T17:19:32.324Z,4.28
2022-12-14T17:21:34.329Z,4.29
2022-12-14T17:23:40.110Z,4.29
2022-12-14T17:25:46.299Z,4.29
2022-12-14T17:27:49.880Z,4.33
2022-12-14T17:29:51.745Z,4.37
2022-12-14T17:31:57.074Z,4.20
2022-12-14T17:33:58.828Z,4.31
2022-12-14T17:36:00.562Z,4.29
2022-12-14T17:38:02.284Z,4.34
2022-12-14T17:40:05.042Z,4.35
2022-12-14T17:42:06.828Z,4.39
2022-12-14T17:44:16.300Z,4.42
2022-12-14T17:46:18.055Z,4.42
2022-12-14T17:48:20.361Z,4.37
2022-12-14T17:50:23.007Z,4.39
2022-12-14T17:52:30.251Z,4.43
2022-12-14T17:54:32.465Z,4.45
2022-12-14T17:56:34.192Z,4.46
2022-12-14T17:58:35.981Z,4.52
2022-12-14T18:00:56.939Z,4.50
2022-12-14T18:02:58.936Z,4.52
2022-12-14T18:05:00.721Z,4.54
2022-12-14T18:07:03.167Z,4.43
2022-12-14T18:09:07.236Z,4.40
2022-12-14T18:11:19.092Z,4.48
2022-12-14T18:13:20.828Z,4.55
2022-12-14T18:15:38.272Z,4.53
2022-12-14T18:17:44.947Z,4.56
2022-12-14T18:19:51.088Z,4.54
2022-12-14T18:21:53.408Z,4.48
2022-12-14T18:23:56.560Z,4.55
2022-12-14T18:25:59.903Z,4.64
2022-12-14T18:28:04.880Z,4.59
2022-12-14T18:30:07.243Z,4.58
2022-12-14T18:32:13.905Z,4.68
2022-12-14T18:34:15.547Z,4.64
2022-12-14T18:36:19.929Z,4.74
2022-12-14T18:38:22.141Z,4.75
2022-12-14T18:40:29.515Z,4.75
2022-12-14T18:42:31.438Z,4.77
2022-12-14T18:44:33.246Z,4.81
2022-12-14T18:46:35.134Z,4.90
2022-12-14T18:48:37.253Z,4.87
2022-12-14T18:50:42.876Z,4.89
2022-12-14T18:52:45.936Z,4.89
2022-12-14T18:54:47.596Z,4.95
2022-12-14T18:56:49.968Z,4.93
2022-12-14T18:58:52.085Z,4.89
2022-12-14T19:00:56.907Z,4.87
2022-12-14T19:02:59.748Z,4.84
2022-12-14T19:05:01.872Z,4.85
2022-12-14T19:07:03.674Z,4.84
2022-12-14T19:09:05.577Z,4.83
2022-12-14T19:11:37.051Z,4.84
2022-12-14T19:13:39.029Z,4.74
2022-12-14T19:15:40.745Z,4.79
2022-12-14T19:17:42.674Z,4.82
2022-12-14T19:19:44.783Z,4.76
2022-12-14T19:21:48.291Z,4.73
2022-12-14T19:23:50.472Z,4.80
2022-12-14T19:25:52.462Z,4.65
2022-12-14T19:28:26.130Z,4.65
2022-12-14T19:30:22.727Z,4.69
2022-12-14T19:32:25.109Z,4.73
2022-12-14T19:34:26.989Z,4.77
2022-12-14T19:36:28.839Z,4.68
2022-12-14T19:38:30.709Z,4.72
2022-12-14T19:40:32.384Z,4.60
2022-12-14T19:42:34.356Z,4.53
2022-12-14T19:44:36.294Z,4.61
2022-12-14T19:46:38.206Z,4.59
2022-12-14T19:48:40.631Z,4.56
2022-12-14T19:50:42.610Z,4.50
2022-12-14T19:52:44.279Z,4.51
2022-12-14T19:54:47.568Z,4.48
2022-12-14T19:56:52.279Z,4.43
2022-12-14T19:58:57.770Z,4.36
2022-12-14T20:00:59.581Z,4.34
2022-12-14T20:03:01.366Z,4.30
2022-12-14T20:05:04.380Z,4.31
2022-12-14T20:07:09.754Z,4.32
2022-12-14T20:09:14.920Z,4.26
2022-12-14T20:11:20.543Z,4.21
2022-12-14T20:13:29.913Z,4.27
2022-12-14T20:15:34.911Z,4.24
2022-12-14T20:17:36.561Z,4.22
2022-12-14T20:19:39.260Z,4.26
2022-12-14T20:21:42.289Z,4.13
2022-12-14T20:23:45.057Z,4.15
2022-12-14T20:25:50.443Z,4.09
2022-12-14T20:27:52.779Z,4.01
2022-12-14T20:29:54.546Z,4.01
2022-12-14T20:31:56.618Z,3.94
2022-12-14T20:34:01.874Z,4.01
2022-12-14T20:36:05.504Z,3.99
2022-12-14T20:38:07.165Z,3.95
2022-12-14T20:40:09.735Z,3.94
2022-12-14T20:42:11.384Z,3.94
2022-12-14T20:44:16.089Z,4.00
2022-12-14T20:46:30.090Z,3.97
2022-12-14T20:48:33.237Z,3.98
2022-12-14T20:50:40.724Z,4.00
2022-12-14T20:52:46.318Z,3.92
2022-12-14T20:54:51.840Z,3.95
2022-12-14T20:56:53.632Z,3.92
2022-12-14T20:58:55.384Z,3.91
2022-12-14T21:00:57.357Z,3.95
2022-12-14T21:02:59.554Z,3.92
2022-12-14T21:05:01.556Z,3.85
2022-12-14T21:07:03.249Z,3.79
2022-12-14T21:09:05.726Z,3.76
2022-12-14T21:11:30.863Z,3.78
2022-12-14T21:13:35.287Z,3.74
2022-12-14T21:15:37.031Z,3.69
2022-12-14T21:17:40.842Z,3.69
2022-12-14T21:19:47.905Z,3.68
2022-12-14T21:21:53.800Z,3.64
2022-12-14T21:23:56.029Z,3.67
2022-12-14T21:26:05.071Z,3.65
2022-12-14T21:28:06.763Z,3.65
2022-12-14T21:30:11.084Z,3.64
2022-12-14T21:32:13.815Z,3.67
2022-12-14T21:34:19.707Z,3.65
2022-12-14T21:36:21.635Z,3.64
2022-12-14T21:38:23.522Z,3.61
2022-12-14T21:40:43.819Z,3.60
2022-12-14T21:42:49.062Z,3.57
2022-12-14T21:44:52.221Z,3.55
2022-12-14T21:46:53.829Z,3.54
2022-12-14T21:48:55.503Z,3.48
2022-12-14T21:50:57.270Z,3.48
2022-12-14T21:52:59.014Z,3.45
2022-12-14T21:55:00.878Z,3.45
2022-12-14T21:57:21.615Z,3.41
2022-12-14T21:59:32.412Z,3.42
2022-12-14T22:01:34.137Z,3.39
2022-12-14T22:03:36.173Z,3.37
2022-12-14T22:05:39.284Z,3.34
2022-12-14T22:07:40.938Z,3.32
2022-12-14T22:09:43.471Z,3.29
2022-12-14T22:11:51.976Z,3.28
2022-12-14T22:13:53.698Z,3.25
2022-12-14T22:15:55.487Z,3.24
2022-12-14T22:17:57.170Z,3.22
2022-12-14T22:19:59.506Z,3.17
2022-12-14T22:22:01.291Z,3.16
2022-12-14T22:24:03.500Z,3.23
2022-12-14T22:26:06.068Z,3.24
2022-12-14T22:28:07.721Z,3.16
2022-12-14T22:30:09.946Z,3.10
2022-12-14T22:32:12.515Z,3.08
2022-12-14T22:34:17.458Z,3.08
2022-12-14T22:36:19.160Z,3.10
2022-12-14T22:38:20.812Z,3.10
2022-12-14T22:40:22.457Z,3.08
2022-12-14T22:42:24.281Z,3.03
2022-12-14T22:44:25.990Z,3.04
2022-12-14T22:46:28.312Z,3.02
2022-12-14T22:48:37.297Z,2.98
2022-12-14T22:50:39.148Z,3.02
2022-12-14T22:52:40.877Z,2.98
2022-12-14T22:54:42.639Z,2.94
2022-12-14T22:56:48.854Z,2.94
2022-12-14T22:58:57.412Z,2.89
2022-12-14T23:00:59.917Z,2.98
2022-12-14T23:03:02.195Z,2.88
2022-12-14T23:05:07.097Z,2.93
2022-12-14T23:07:09.110Z,2.88
2022-12-14T23:09:29.608Z,2.89
2022-12-14T23:11:51.300Z,2.92
2022-12-14T23:14:17.358Z,2.83
2022-12-14T23:16:41.742Z,2.81
2022-12-14T23:19:15.287Z,2.80
2022-12-14T23:21:35.746Z,2.76
2022-12-14T23:23:58.085Z,2.79
2022-12-14T23:26:23.691Z,2.81
2022-12-14T23:28:44.751Z,2.80
2022-12-14T23:31:16.067Z,2.80
2022-12-14T23:33:36.318Z,2.79
2022-12-14T23:35:56.140Z,2.82
2022-12-14T23:38:22.526Z,2.81
2022-12-14T23:40:42.850Z,2.77
2022-12-14T23:43:03.078Z,2.77
2022-12-14T23:45:24.454Z,2.74
2022-12-14T23:47:45.108Z,2.73
2022-12-14T23:50:09.586Z,2.70
2022-12-14T23:52:30.133Z,2.66
2022-12-14T23:54:50.715Z,2.64
2022-12-14T23:57:11.238Z,2.59
2022-12-14T23:59:33.635Z,2.63
